sensor_id;sensor_type;location;lat;lon;timestamp;P1;durP1;ratioP1;P2;durP2;ratioP2
66380;SDS011;53177;52.648;1.214;2024-03-23T00:54:06;7.75;;;2.20;;
66380;SDS011;53177;52.648;1.214;2024-03-23T00:56:32;8.60;;;2.40;;
66380;SDS011;53177;52.648;1.214;2024-03-23T00:58:57;9.87;;;2.30;;
66380;SDS011;53177;52.648;1.214;2024-03-23T01:01:22;13.47;;;2.40;;
66380;SDS011;53177;52.648;1.214;2024-03-23T01:03:48;7.87;;;2.37;;
66380;SDS011;53177;52.648;1.214;2024-03-23T01:06:13;10.02;;;2.00;;
66380;SDS011;53177;52.648;1.214;2024-03-23T01:08:38;8.02;;;2.58;;
66380;SDS011;53177;52.648;1.214;2024-03-23T01:11:04;9.77;;;2.30;;
66380;SDS011;53177;52.648;1.214;2024-03-23T01:13:29;7.60;;;1.80;;
66380;SDS011;53177;52.648;1.214;2024-03-23T01:15:55;9.57;;;2.20;;
66380;SDS011;53177;52.648;1.214;2024-03-23T01:18:22;9.95;;;1.90;;
66380;SDS011;53177;52.648;1.214;2024-03-23T01:20:48;9.63;;;1.80;;
66380;SDS011;53177;52.648;1.214;2024-03-23T01:23:13;5.67;;;1.50;;
66380;SDS011;53177;52.648;1.214;2024-03-23T01:25:40;8.27;;;1.80;;
66380;SDS011;53177;52.648;1.214;2024-03-23T01:28:05;9.40;;;1.60;;
66380;SDS011;53177;52.648;1.214;2024-03-23T01:30:31;11.35;;;1.88;;
66380;SDS011;53177;52.648;1.214;2024-03-23T01:32:57;8.73;;;1.80;;
66380;SDS011;53177;52.648;1.214;2024-03-23T01:35:22;11.85;;;1.80;;
66380;SDS011;53177;52.648;1.214;2024-03-23T01:37:48;10.20;;;1.50;;
66380;SDS011;53177;52.648;1.214;2024-03-23T01:40:13;9.00;;;1.63;;
66380;SDS011;53177;52.648;1.214;2024-03-23T01:42:41;6.50;;;1.27;;
66380;SDS011;53177;52.648;1.214;2024-03-23T01:45:07;8.67;;;1.47;;
66380;SDS011;53177;52.648;1.214;2024-03-23T01:47:33;8.73;;;1.17;;
66380;SDS011;53177;52.648;1.214;2024-03-23T01:49:58;6.57;;;1.20;;
66380;SDS011;53177;52.648;1.214;2024-03-23T01:52:24;5.20;;;1.23;;
66380;SDS011;53177;52.648;1.214;2024-03-23T01:54:50;7.20;;;1.23;;
66380;SDS011;53177;52.648;1.214;2024-03-23T01:57:16;6.13;;;1.10;;
66380;SDS011;53177;52.648;1.214;2024-03-23T01:59:42;6.38;;;1.30;;
66380;SDS011;53177;52.648;1.214;2024-03-23T02:02:07;9.50;;;1.17;;
66380;SDS011;53177;52.648;1.214;2024-03-23T02:04:33;6.33;;;1.23;;
66380;SDS011;53177;52.648;1.214;2024-03-23T02:06:58;5.07;;;1.00;;
66380;SDS011;53177;52.648;1.214;2024-03-23T02:09:24;7.65;;;1.02;;
66380;SDS011;53177;52.648;1.214;2024-03-23T02:11:50;5.93;;;0.90;;
66380;SDS011;53177;52.648;1.214;2024-03-23T02:14:15;9.65;;;1.50;;
66380;SDS011;53177;52.648;1.214;2024-03-23T02:16:41;6.00;;;0.80;;
66380;SDS011;53177;52.648;1.214;2024-03-23T02:19:06;7.93;;;0.97;;
66380;SDS011;53177;52.648;1.214;2024-03-23T02:21:32;6.13;;;1.10;;
66380;SDS011;53177;52.648;1.214;2024-03-23T02:23:58;7.35;;;1.38;;
66380;SDS011;53177;52.648;1.214;2024-03-23T02:26:24;7.38;;;1.48;;
66380;SDS011;53177;52.648;1.214;2024-03-23T02:28:49;8.93;;;1.67;;
66380;SDS011;53177;52.648;1.214;2024-03-23T02:31:15;4.87;;;1.10;;
66380;SDS011;53177;52.648;1.214;2024-03-23T02:33:40;8.53;;;0.90;;
66380;SDS011;53177;52.648;1.214;2024-03-23T02:36:06;6.80;;;1.30;;
66380;SDS011;53177;52.648;1.214;2024-03-23T02:38:32;5.88;;;1.05;;
66380;SDS011;53177;52.648;1.214;2024-03-23T02:41:03;9.60;;;1.03;;
66380;SDS011;53177;52.648;1.214;2024-03-23T02:43:29;6.95;;;1.27;;
66380;SDS011;53177;52.648;1.214;2024-03-23T02:45:54;5.53;;;1.27;;
66380;SDS011;53177;52.648;1.214;2024-03-23T02:48:20;11.00;;;1.50;;
66380;SDS011;53177;52.648;1.214;2024-03-23T02:50:45;6.47;;;1.00;;
66380;SDS011;53177;52.648;1.214;2024-03-23T02:53:10;5.60;;;0.90;;
66380;SDS011;53177;52.648;1.214;2024-03-23T02:55:36;6.90;;;0.97;;
66380;SDS011;53177;52.648;1.214;2024-03-23T02:58:01;8.30;;;1.67;;
66380;SDS011;53177;52.648;1.214;2024-03-23T03:00:27;8.67;;;1.23;;
66380;SDS011;53177;52.648;1.214;2024-03-23T03:02:53;7.53;;;1.70;;
66380;SDS011;53177;52.648;1.214;2024-03-23T03:05:18;7.40;;;1.50;;
66380;SDS011;53177;52.648;1.214;2024-03-23T03:07:44;6.87;;;1.00;;
66380;SDS011;53177;52.648;1.214;2024-03-23T03:10:09;6.30;;;1.07;;
66380;SDS011;53177;52.648;1.214;2024-03-23T03:12:36;9.48;;;1.05;;
66380;SDS011;53177;52.648;1.214;2024-03-23T03:15:02;8.95;;;1.10;;
66380;SDS011;53177;52.648;1.214;2024-03-23T03:17:29;6.35;;;1.10;;
66380;SDS011;53177;52.648;1.214;2024-03-23T03:19:55;5.40;;;1.17;;
66380;SDS011;53177;52.648;1.214;2024-03-23T03:22:21;5.55;;;1.00;;
66380;SDS011;53177;52.648;1.214;2024-03-23T03:24:49;7.05;;;1.05;;
66380;SDS011;53177;52.648;1.214;2024-03-23T03:27:15;5.60;;;1.00;;
66380;SDS011;53177;52.648;1.214;2024-03-23T03:29:40;9.18;;;1.30;;
66380;SDS011;53177;52.648;1.214;2024-03-23T03:32:06;5.67;;;1.07;;
66380;SDS011;53177;52.648;1.214;2024-03-23T03:34:31;6.07;;;0.90;;
66380;SDS011;53177;52.648;1.214;2024-03-23T03:36:58;7.78;;;0.98;;
66380;SDS011;53177;52.648;1.214;2024-03-23T03:39:24;7.90;;;1.20;;
66380;SDS011;53177;52.648;1.214;2024-03-23T03:41:50;5.90;;;1.00;;
66380;SDS011;53177;52.648;1.214;2024-03-23T03:44:15;6.77;;;1.00;;
66380;SDS011;53177;52.648;1.214;2024-03-23T03:46:41;5.97;;;1.10;;
66380;SDS011;53177;52.648;1.214;2024-03-23T03:49:06;6.40;;;1.03;;
66380;SDS011;53177;52.648;1.214;2024-03-23T03:51:31;8.50;;;1.47;;
66380;SDS011;53177;52.648;1.214;2024-03-23T03:53:57;9.18;;;1.30;;
66380;SDS011;53177;52.648;1.214;2024-03-23T03:56:22;7.63;;;1.17;;
66380;SDS011;53177;52.648;1.214;2024-03-23T03:58:48;7.30;;;1.10;;
66380;SDS011;53177;52.648;1.214;2024-03-23T04:01:13;5.00;;;0.93;;
66380;SDS011;53177;52.648;1.214;2024-03-23T04:03:39;10.00;;;1.20;;
66380;SDS011;53177;52.648;1.214;2024-03-23T04:06:09;7.27;;;1.10;;
66380;SDS011;53177;52.648;1.214;2024-03-23T04:08:34;11.52;;;1.50;;
66380;SDS011;53177;52.648;1.214;2024-03-23T04:11:00;8.80;;;1.23;;
66380;SDS011;53177;52.648;1.214;2024-03-23T04:13:25;7.53;;;1.17;;
66380;SDS011;53177;52.648;1.214;2024-03-23T04:15:53;6.97;;;1.07;;
66380;SDS011;53177;52.648;1.214;2024-03-23T04:18:20;9.13;;;1.10;;
66380;SDS011;53177;52.648;1.214;2024-03-23T04:20:45;5.63;;;1.20;;
66380;SDS011;53177;52.648;1.214;2024-03-23T04:23:11;9.23;;;1.30;;
66380;SDS011;53177;52.648;1.214;2024-03-23T04:25:36;7.67;;;1.33;;
66380;SDS011;53177;52.648;1.214;2024-03-23T04:28:01;7.87;;;1.30;;
66380;SDS011;53177;52.648;1.214;2024-03-23T04:30:27;7.93;;;1.25;;
66380;SDS011;53177;52.648;1.214;2024-03-23T04:32:54;6.20;;;1.23;;
66380;SDS011;53177;52.648;1.214;2024-03-23T04:35:19;10.03;;;1.47;;
66380;SDS011;53177;52.648;1.214;2024-03-23T04:37:47;5.70;;;0.90;;
66380;SDS011;53177;52.648;1.214;2024-03-23T04:40:12;6.23;;;1.20;;
66380;SDS011;53177;52.648;1.214;2024-03-23T04:42:38;7.18;;;1.13;;
66380;SDS011;53177;52.648;1.214;2024-03-23T04:45:04;7.97;;;1.27;;
66380;SDS011;53177;52.648;1.214;2024-03-23T04:47:31;10.35;;;2.05;;
66380;SDS011;53177;52.648;1.214;2024-03-23T04:49:56;8.00;;;1.63;;
66380;SDS011;53177;52.648;1.214;2024-03-23T04:52:22;9.83;;;1.50;;
66380;SDS011;53177;52.648;1.214;2024-03-23T04:54:47;7.88;;;1.30;;
66380;SDS011;53177;52.648;1.214;2024-03-23T04:57:12;9.88;;;1.55;;
66380;SDS011;53177;52.648;1.214;2024-03-23T04:59:38;6.60;;;1.03;;
66380;SDS011;53177;52.648;1.214;2024-03-23T05:02:03;5.33;;;1.20;;
66380;SDS011;53177;52.648;1.214;2024-03-23T05:04:29;8.20;;;1.30;;
66380;SDS011;53177;52.648;1.214;2024-03-23T05:06:54;7.60;;;1.20;;
66380;SDS011;53177;52.648;1.214;2024-03-23T05:09:20;8.35;;;1.33;;
66380;SDS011;53177;52.648;1.214;2024-03-23T05:11:46;6.57;;;1.10;;
66380;SDS011;53177;52.648;1.214;2024-03-23T05:14:14;6.47;;;1.67;;
66380;SDS011;53177;52.648;1.214;2024-03-23T05:16:39;11.93;;;1.20;;
66380;SDS011;53177;52.648;1.214;2024-03-23T05:19:06;6.95;;;1.08;;
66380;SDS011;53177;52.648;1.214;2024-03-23T05:21:31;8.48;;;1.20;;
66380;SDS011;53177;52.648;1.214;2024-03-23T05:23:56;7.67;;;1.13;;
66380;SDS011;53177;52.648;1.214;2024-03-23T05:26:22;10.17;;;1.40;;
66380;SDS011;53177;52.648;1.214;2024-03-23T05:28:48;6.97;;;1.25;;
66380;SDS011;53177;52.648;1.214;2024-03-23T05:31:30;7.17;;;1.10;;
66380;SDS011;53177;52.648;1.214;2024-03-23T05:33:56;7.65;;;1.30;;
66380;SDS011;53177;52.648;1.214;2024-03-23T05:36:22;7.03;;;1.20;;
66380;SDS011;53177;52.648;1.214;2024-03-23T05:38:49;6.53;;;1.02;;
66380;SDS011;53177;52.648;1.214;2024-03-23T05:41:15;9.02;;;1.20;;
66380;SDS011;53177;52.648;1.214;2024-03-23T05:43:40;8.87;;;1.10;;
66380;SDS011;53177;52.648;1.214;2024-03-23T05:46:06;6.87;;;1.30;;
66380;SDS011;53177;52.648;1.214;2024-03-23T05:48:32;8.15;;;1.33;;
66380;SDS011;53177;52.648;1.214;2024-03-23T05:50:58;6.35;;;1.13;;
66380;SDS011;53177;52.648;1.214;2024-03-23T05:53:24;7.27;;;1.10;;
66380;SDS011;53177;52.648;1.214;2024-03-23T05:55:59;5.60;;;1.13;;
66380;SDS011;53177;52.648;1.214;2024-03-23T05:58:26;7.37;;;1.20;;
66380;SDS011;53177;52.648;1.214;2024-03-23T06:00:56;5.82;;;1.10;;
66380;SDS011;53177;52.648;1.214;2024-03-23T06:03:26;5.65;;;1.15;;
66380;SDS011;53177;52.648;1.214;2024-03-23T06:05:52;8.60;;;1.38;;
66380;SDS011;53177;52.648;1.214;2024-03-23T06:08:21;6.70;;;1.10;;
66380;SDS011;53177;52.648;1.214;2024-03-23T06:10:46;7.03;;;1.30;;
66380;SDS011;53177;52.648;1.214;2024-03-23T06:13:12;11.40;;;1.40;;
66380;SDS011;53177;52.648;1.214;2024-03-23T06:15:38;7.13;;;1.30;;
66380;SDS011;53177;52.648;1.214;2024-03-23T06:18:04;6.18;;;1.38;;
66380;SDS011;53177;52.648;1.214;2024-03-23T06:20:30;10.52;;;1.98;;
66380;SDS011;53177;52.648;1.214;2024-03-23T06:22:56;8.00;;;1.20;;
66380;SDS011;53177;52.648;1.214;2024-03-23T06:25:21;8.70;;;1.85;;
66380;SDS011;53177;52.648;1.214;2024-03-23T06:27:47;7.27;;;1.40;;
66380;SDS011;53177;52.648;1.214;2024-03-23T06:30:12;11.47;;;1.70;;
66380;SDS011;53177;52.648;1.214;2024-03-23T06:32:38;9.87;;;2.03;;
66380;SDS011;53177;52.648;1.214;2024-03-23T06:35:03;6.97;;;1.57;;
66380;SDS011;53177;52.648;1.214;2024-03-23T06:37:33;6.60;;;1.08;;
66380;SDS011;53177;52.648;1.214;2024-03-23T06:39:59;9.38;;;1.10;;
66380;SDS011;53177;52.648;1.214;2024-03-23T06:42:24;6.47;;;1.63;;
66380;SDS011;53177;52.648;1.214;2024-03-23T06:44:50;9.25;;;1.20;;
66380;SDS011;53177;52.648;1.214;2024-03-23T06:47:15;9.13;;;1.40;;
66380;SDS011;53177;52.648;1.214;2024-03-23T06:49:41;8.57;;;1.50;;
66380;SDS011;53177;52.648;1.214;2024-03-23T06:52:07;8.83;;;1.57;;
66380;SDS011;53177;52.648;1.214;2024-03-23T06:54:32;6.30;;;1.30;;
66380;SDS011;53177;52.648;1.214;2024-03-23T06:56:57;7.28;;;1.30;;
66380;SDS011;53177;52.648;1.214;2024-03-23T06:59:23;7.77;;;1.27;;
66380;SDS011;53177;52.648;1.214;2024-03-23T07:01:48;6.47;;;1.30;;
66380;SDS011;53177;52.648;1.214;2024-03-23T07:04:13;7.13;;;1.20;;
66380;SDS011;53177;52.648;1.214;2024-03-23T07:06:42;9.33;;;1.40;;
66380;SDS011;53177;52.648;1.214;2024-03-23T07:09:09;9.15;;;1.75;;
66380;SDS011;53177;52.648;1.214;2024-03-23T07:11:34;7.57;;;1.50;;
66380;SDS011;53177;52.648;1.214;2024-03-23T07:14:00;10.50;;;1.50;;
66380;SDS011;53177;52.648;1.214;2024-03-23T07:16:26;9.57;;;1.33;;
66380;SDS011;53177;52.648;1.214;2024-03-23T07:18:52;9.00;;;1.40;;
66380;SDS011;53177;52.648;1.214;2024-03-23T07:21:17;9.67;;;1.40;;
66380;SDS011;53177;52.648;1.214;2024-03-23T07:23:43;8.30;;;1.40;;
66380;SDS011;53177;52.648;1.214;2024-03-23T07:26:11;12.35;;;1.33;;
66380;SDS011;53177;52.648;1.214;2024-03-23T07:28:37;10.68;;;1.33;;
66380;SDS011;53177;52.648;1.214;2024-03-23T07:31:07;11.10;;;1.40;;
66380;SDS011;53177;52.648;1.214;2024-03-23T07:33:45;8.98;;;1.52;;
66380;SDS011;53177;52.648;1.214;2024-03-23T07:36:12;11.63;;;1.77;;
66380;SDS011;53177;52.648;1.214;2024-03-23T07:38:41;8.73;;;1.38;;
66380;SDS011;53177;52.648;1.214;2024-03-23T07:41:28;11.43;;;1.50;;
66380;SDS011;53177;52.648;1.214;2024-03-23T07:43:53;9.27;;;1.20;;
66380;SDS011;53177;52.648;1.214;2024-03-23T07:46:20;8.35;;;1.42;;
66380;SDS011;53177;52.648;1.214;2024-03-23T07:48:45;10.68;;;1.50;;
66380;SDS011;53177;52.648;1.214;2024-03-23T07:53:46;5.72;;;1.23;;
66380;SDS011;53177;52.648;1.214;2024-03-23T07:56:13;8.55;;;1.20;;
66380;SDS011;53177;52.648;1.214;2024-03-23T07:58:40;8.90;;;1.60;;
66380;SDS011;53177;52.648;1.214;2024-03-23T08:01:06;6.80;;;1.17;;
66380;SDS011;53177;52.648;1.214;2024-03-23T08:03:33;6.85;;;1.17;;
66380;SDS011;53177;52.648;1.214;2024-03-23T08:06:12;4.97;;;0.98;;
66380;SDS011;53177;52.648;1.214;2024-03-23T08:08:38;7.65;;;1.52;;
66380;SDS011;53177;52.648;1.214;2024-03-23T08:11:05;10.70;;;2.03;;
66380;SDS011;53177;52.648;1.214;2024-03-23T08:13:30;6.22;;;0.95;;
66380;SDS011;53177;52.648;1.214;2024-03-23T08:15:57;8.97;;;1.50;;
66380;SDS011;53177;52.648;1.214;2024-03-23T08:18:23;12.48;;;1.67;;
66380;SDS011;53177;52.648;1.214;2024-03-23T08:21:01;9.85;;;1.30;;
66380;SDS011;53177;52.648;1.214;2024-03-23T08:23:29;5.77;;;1.00;;
66380;SDS011;53177;52.648;1.214;2024-03-23T08:25:58;6.25;;;1.20;;
66380;SDS011;53177;52.648;1.214;2024-03-23T08:28:28;8.02;;;1.05;;
66380;SDS011;53177;52.648;1.214;2024-03-23T08:30:54;10.18;;;1.55;;
66380;SDS011;53177;52.648;1.214;2024-03-23T08:33:20;8.07;;;1.10;;
66380;SDS011;53177;52.648;1.214;2024-03-23T08:35:59;7.82;;;1.73;;
66380;SDS011;53177;52.648;1.214;2024-03-23T08:38:28;7.13;;;1.20;;
66380;SDS011;53177;52.648;1.214;2024-03-23T08:41:00;9.20;;;1.20;;
66380;SDS011;53177;52.648;1.214;2024-03-23T08:43:27;8.75;;;1.23;;
66380;SDS011;53177;52.648;1.214;2024-03-23T08:46:02;6.47;;;1.10;;
66380;SDS011;53177;52.648;1.214;2024-03-23T08:48:32;10.60;;;1.30;;
66380;SDS011;53177;52.648;1.214;2024-03-23T08:51:01;9.18;;;1.60;;
66380;SDS011;53177;52.648;1.214;2024-03-23T08:53:31;10.07;;;1.83;;
66380;SDS011;53177;52.648;1.214;2024-03-23T08:55:57;7.88;;;1.15;;
66380;SDS011;53177;52.648;1.214;2024-03-23T08:58:23;8.07;;;1.60;;
66380;SDS011;53177;52.648;1.214;2024-03-23T09:00:50;8.33;;;1.60;;
66380;SDS011;53177;52.648;1.214;2024-03-23T09:03:16;8.32;;;1.30;;
66380;SDS011;53177;52.648;1.214;2024-03-23T09:05:42;10.02;;;1.60;;
66380;SDS011;53177;52.648;1.214;2024-03-23T09:08:07;7.40;;;1.20;;
66380;SDS011;53177;52.648;1.214;2024-03-23T09:10:39;6.82;;;1.20;;
66380;SDS011;53177;52.648;1.214;2024-03-23T09:13:05;7.05;;;1.25;;
66380;SDS011;53177;52.648;1.214;2024-03-23T09:15:31;7.70;;;1.25;;
66380;SDS011;53177;52.648;1.214;2024-03-23T09:18:01;8.00;;;1.20;;
66380;SDS011;53177;52.648;1.214;2024-03-23T09:20:27;7.20;;;1.40;;
66380;SDS011;53177;52.648;1.214;2024-03-23T09:22:53;6.53;;;1.10;;
66380;SDS011;53177;52.648;1.214;2024-03-23T09:25:18;8.83;;;1.20;;
66380;SDS011;53177;52.648;1.214;2024-03-23T09:27:45;7.90;;;1.20;;
66380;SDS011;53177;52.648;1.214;2024-03-23T09:30:11;8.20;;;1.35;;
66380;SDS011;53177;52.648;1.214;2024-03-23T09:32:37;8.15;;;1.38;;
66380;SDS011;53177;52.648;1.214;2024-03-23T09:35:03;7.97;;;1.10;;
66380;SDS011;53177;52.648;1.214;2024-03-23T09:37:29;6.25;;;1.10;;
66380;SDS011;53177;52.648;1.214;2024-03-23T09:39:54;8.23;;;1.20;;
66380;SDS011;53177;52.648;1.214;2024-03-23T09:42:20;7.37;;;1.20;;
66380;SDS011;53177;52.648;1.214;2024-03-23T09:44:45;8.43;;;1.23;;
66380;SDS011;53177;52.648;1.214;2024-03-23T09:47:11;7.68;;;1.02;;
66380;SDS011;53177;52.648;1.214;2024-03-23T09:49:37;8.00;;;1.23;;
66380;SDS011;53177;52.648;1.214;2024-03-23T09:52:03;7.00;;;1.00;;
66380;SDS011;53177;52.648;1.214;2024-03-23T09:54:29;5.93;;;1.13;;
66380;SDS011;53177;52.648;1.214;2024-03-23T09:56:55;9.27;;;1.23;;
66380;SDS011;53177;52.648;1.214;2024-03-23T09:59:20;10.00;;;1.17;;
66380;SDS011;53177;52.648;1.214;2024-03-23T10:01:45;11.60;;;2.05;;
66380;SDS011;53177;52.648;1.214;2024-03-23T10:04:11;8.83;;;1.20;;
66380;SDS011;53177;52.648;1.214;2024-03-23T10:06:38;6.25;;;1.00;;
66380;SDS011;53177;52.648;1.214;2024-03-23T10:09:03;6.27;;;1.10;;
66380;SDS011;53177;52.648;1.214;2024-03-23T10:11:42;6.75;;;1.25;;
66380;SDS011;53177;52.648;1.214;2024-03-23T10:14:09;8.18;;;1.25;;
66380;SDS011;53177;52.648;1.214;2024-03-23T10:16:34;7.00;;;1.10;;
66380;SDS011;53177;52.648;1.214;2024-03-23T10:18:59;6.03;;;1.20;;
66380;SDS011;53177;52.648;1.214;2024-03-23T10:21:25;8.10;;;1.20;;
66380;SDS011;53177;52.648;1.214;2024-03-23T10:23:50;10.63;;;1.65;;
66380;SDS011;53177;52.648;1.214;2024-03-23T10:26:20;5.17;;;1.10;;
66380;SDS011;53177;52.648;1.214;2024-03-23T10:28:50;8.57;;;1.30;;
66380;SDS011;53177;52.648;1.214;2024-03-23T10:31:17;6.97;;;1.05;;
66380;SDS011;53177;52.648;1.214;2024-03-23T10:33:51;9.83;;;1.60;;
66380;SDS011;53177;52.648;1.214;2024-03-23T10:36:19;9.70;;;1.67;;
66380;SDS011;53177;52.648;1.214;2024-03-23T10:38:45;5.28;;;1.00;;
66380;SDS011;53177;52.648;1.214;2024-03-23T10:41:11;5.53;;;1.30;;
66380;SDS011;53177;52.648;1.214;2024-03-23T10:43:37;6.22;;;1.20;;
66380;SDS011;53177;52.648;1.214;2024-03-23T10:46:04;8.60;;;1.05;;
66380;SDS011;53177;52.648;1.214;2024-03-23T10:48:31;6.60;;;0.98;;
66380;SDS011;53177;52.648;1.214;2024-03-23T10:50:57;7.67;;;1.07;;
66380;SDS011;53177;52.648;1.214;2024-03-23T10:53:25;7.53;;;1.10;;
66380;SDS011;53177;52.648;1.214;2024-03-23T10:55:52;6.75;;;1.10;;
66380;SDS011;53177;52.648;1.214;2024-03-23T10:58:21;8.40;;;1.40;;
66380;SDS011;53177;52.648;1.214;2024-03-23T11:00:51;5.95;;;0.88;;
66380;SDS011;53177;52.648;1.214;2024-03-23T11:03:31;7.10;;;1.27;;
66380;SDS011;53177;52.648;1.214;2024-03-23T11:05:57;5.53;;;1.10;;
66380;SDS011;53177;52.648;1.214;2024-03-23T11:08:33;5.95;;;1.17;;
66380;SDS011;53177;52.648;1.214;2024-03-23T11:11:18;7.13;;;1.40;;
66380;SDS011;53177;52.648;1.214;2024-03-23T11:13:51;8.43;;;1.10;;
66380;SDS011;53177;52.648;1.214;2024-03-23T11:16:27;6.20;;;1.45;;
66380;SDS011;53177;52.648;1.214;2024-03-23T11:22:02;7.15;;;1.00;;
66380;SDS011;53177;52.648;1.214;2024-03-23T11:24:28;6.63;;;1.10;;
66380;SDS011;53177;52.648;1.214;2024-03-23T11:26:54;8.13;;;1.30;;
66380;SDS011;53177;52.648;1.214;2024-03-23T11:29:19;8.40;;;1.20;;
66380;SDS011;53177;52.648;1.214;2024-03-23T11:31:48;5.20;;;0.87;;
66380;SDS011;53177;52.648;1.214;2024-03-23T11:34:17;8.57;;;1.02;;
66380;SDS011;53177;52.648;1.214;2024-03-23T11:36:44;7.25;;;0.95;;
66380;SDS011;53177;52.648;1.214;2024-03-23T11:39:13;9.65;;;1.20;;
66380;SDS011;53177;52.648;1.214;2024-03-23T11:41:48;6.80;;;0.90;;
66380;SDS011;53177;52.648;1.214;2024-03-23T11:44:23;6.70;;;1.27;;
66380;SDS011;53177;52.648;1.214;2024-03-23T11:46:50;9.10;;;1.02;;
66380;SDS011;53177;52.648;1.214;2024-03-23T11:49:20;7.50;;;1.27;;
66380;SDS011;53177;52.648;1.214;2024-03-23T11:51:49;5.38;;;0.90;;
66380;SDS011;53177;52.648;1.214;2024-03-23T11:54:15;7.47;;;1.00;;
66380;SDS011;53177;52.648;1.214;2024-03-23T11:56:53;5.20;;;1.20;;
66380;SDS011;53177;52.648;1.214;2024-03-23T11:59:32;5.40;;;0.98;;
66380;SDS011;53177;52.648;1.214;2024-03-23T12:01:59;8.20;;;1.00;;
66380;SDS011;53177;52.648;1.214;2024-03-23T12:04:27;5.90;;;0.90;;
66380;SDS011;53177;52.648;1.214;2024-03-23T12:09:41;6.07;;;0.93;;
66380;SDS011;53177;52.648;1.214;2024-03-23T12:14:32;5.95;;;1.20;;
66380;SDS011;53177;52.648;1.214;2024-03-23T12:17:07;6.68;;;1.13;;
66380;SDS011;53177;52.648;1.214;2024-03-23T12:19:36;6.60;;;1.07;;
66380;SDS011;53177;52.648;1.214;2024-03-23T12:22:05;6.60;;;0.98;;
66380;SDS011;53177;52.648;1.214;2024-03-23T12:24:32;4.40;;;0.77;;
66380;SDS011;53177;52.648;1.214;2024-03-23T12:26:59;9.30;;;0.95;;
66380;SDS011;53177;52.648;1.214;2024-03-23T12:29:28;5.30;;;0.98;;
66380;SDS011;53177;52.648;1.214;2024-03-23T12:31:55;5.23;;;0.90;;
66380;SDS011;53177;52.648;1.214;2024-03-23T12:34:21;4.60;;;0.70;;
66380;SDS011;53177;52.648;1.214;2024-03-23T12:36:46;6.83;;;1.00;;
66380;SDS011;53177;52.648;1.214;2024-03-23T12:39:11;5.57;;;0.88;;
66380;SDS011;53177;52.648;1.214;2024-03-23T12:41:37;6.20;;;0.80;;
66380;SDS011;53177;52.648;1.214;2024-03-23T12:44:02;10.13;;;1.47;;
66380;SDS011;53177;52.648;1.214;2024-03-23T12:46:27;4.90;;;0.93;;
66380;SDS011;53177;52.648;1.214;2024-03-23T12:48:53;9.27;;;1.17;;
66380;SDS011;53177;52.648;1.214;2024-03-23T12:51:18;7.00;;;0.90;;
66380;SDS011;53177;52.648;1.214;2024-03-23T12:53:44;5.67;;;0.90;;
66380;SDS011;53177;52.648;1.214;2024-03-23T12:56:12;4.05;;;0.70;;
66380;SDS011;53177;52.648;1.214;2024-03-23T12:58:37;3.83;;;0.70;;
66380;SDS011;53177;52.648;1.214;2024-03-23T13:01:03;4.67;;;0.70;;
66380;SDS011;53177;52.648;1.214;2024-03-23T13:03:30;7.35;;;1.08;;
66380;SDS011;53177;52.648;1.214;2024-03-23T13:05:55;4.40;;;0.90;;
66380;SDS011;53177;52.648;1.214;2024-03-23T13:08:20;5.05;;;0.70;;
66380;SDS011;53177;52.648;1.214;2024-03-23T13:10:46;5.10;;;0.80;;
66380;SDS011;53177;52.648;1.214;2024-03-23T13:13:12;4.60;;;0.73;;
66380;SDS011;53177;52.648;1.214;2024-03-23T13:15:37;5.00;;;0.70;;
66380;SDS011;53177;52.648;1.214;2024-03-23T13:18:02;4.03;;;0.90;;
66380;SDS011;53177;52.648;1.214;2024-03-23T13:20:28;4.80;;;0.80;;
66380;SDS011;53177;52.648;1.214;2024-03-23T13:22:53;5.87;;;0.80;;
66380;SDS011;53177;52.648;1.214;2024-03-23T13:25:19;5.40;;;1.20;;
66380;SDS011;53177;52.648;1.214;2024-03-23T13:27:44;4.43;;;0.90;;
66380;SDS011;53177;52.648;1.214;2024-03-23T13:30:10;6.63;;;0.80;;
66380;SDS011;53177;52.648;1.214;2024-03-23T13:32:36;3.28;;;0.60;;
66380;SDS011;53177;52.648;1.214;2024-03-23T13:35:03;6.88;;;1.05;;
66380;SDS011;53177;52.648;1.214;2024-03-23T13:37:28;4.43;;;0.80;;
66380;SDS011;53177;52.648;1.214;2024-03-23T13:39:54;5.30;;;0.80;;
66380;SDS011;53177;52.648;1.214;2024-03-23T13:42:19;4.87;;;1.40;;
66380;SDS011;53177;52.648;1.214;2024-03-23T13:44:44;5.73;;;1.00;;
66380;SDS011;53177;52.648;1.214;2024-03-23T13:47:10;4.73;;;1.03;;
66380;SDS011;53177;52.648;1.214;2024-03-23T13:49:35;4.43;;;0.97;;
66380;SDS011;53177;52.648;1.214;2024-03-23T13:52:01;5.55;;;1.30;;
66380;SDS011;53177;52.648;1.214;2024-03-23T13:54:26;7.20;;;1.23;;
66380;SDS011;53177;52.648;1.214;2024-03-23T13:56:52;5.88;;;1.20;;
66380;SDS011;53177;52.648;1.214;2024-03-23T13:59:19;3.73;;;0.80;;
66380;SDS011;53177;52.648;1.214;2024-03-23T14:01:46;4.95;;;1.10;;
66380;SDS011;53177;52.648;1.214;2024-03-23T14:04:12;6.50;;;1.10;;
66380;SDS011;53177;52.648;1.214;2024-03-23T14:06:38;7.10;;;1.10;;
66380;SDS011;53177;52.648;1.214;2024-03-23T14:09:03;3.72;;;0.77;;
66380;SDS011;53177;52.648;1.214;2024-03-23T14:11:29;3.35;;;0.60;;
66380;SDS011;53177;52.648;1.214;2024-03-23T14:13:55;2.83;;;0.50;;
66380;SDS011;53177;52.648;1.214;2024-03-23T14:16:20;2.50;;;0.47;;
66380;SDS011;53177;52.648;1.214;2024-03-23T14:18:46;1.37;;;0.30;;
66380;SDS011;53177;52.648;1.214;2024-03-23T14:21:12;1.73;;;0.30;;
66380;SDS011;53177;52.648;1.214;2024-03-23T14:23:37;3.97;;;0.40;;
66380;SDS011;53177;52.648;1.214;2024-03-23T14:26:03;1.80;;;0.40;;
66380;SDS011;53177;52.648;1.214;2024-03-23T14:28:28;3.20;;;0.57;;
66380;SDS011;53177;52.648;1.214;2024-03-23T14:30:55;4.83;;;0.60;;
66380;SDS011;53177;52.648;1.214;2024-03-23T14:33:20;3.22;;;0.50;;
66380;SDS011;53177;52.648;1.214;2024-03-23T14:35:52;1.50;;;0.30;;
66380;SDS011;53177;52.648;1.214;2024-03-23T14:38:22;2.67;;;0.50;;
66380;SDS011;53177;52.648;1.214;2024-03-23T14:40:47;2.90;;;0.50;;
66380;SDS011;53177;52.648;1.214;2024-03-23T14:43:13;2.92;;;0.70;;
66380;SDS011;53177;52.648;1.214;2024-03-23T14:48:38;3.30;;;0.60;;
66380;SDS011;53177;52.648;1.214;2024-03-23T14:51:04;5.63;;;0.80;;
66380;SDS011;53177;52.648;1.214;2024-03-23T14:53:31;4.10;;;1.10;;
66380;SDS011;53177;52.648;1.214;2024-03-23T14:55:57;4.60;;;0.80;;
66380;SDS011;53177;52.648;1.214;2024-03-23T14:58:22;3.83;;;0.80;;
66380;SDS011;53177;52.648;1.214;2024-03-23T15:00:51;4.83;;;0.80;;
66380;SDS011;53177;52.648;1.214;2024-03-23T15:03:19;5.63;;;0.93;;
66380;SDS011;53177;52.648;1.214;2024-03-23T15:05:54;4.83;;;0.80;;
66380;SDS011;53177;52.648;1.214;2024-03-23T15:08:21;6.90;;;1.58;;
66380;SDS011;53177;52.648;1.214;2024-03-23T15:10:47;9.55;;;2.40;;
66380;SDS011;53177;52.648;1.214;2024-03-23T15:13:12;11.87;;;2.90;;
66380;SDS011;53177;52.648;1.214;2024-03-23T15:15:39;9.23;;;2.50;;
66380;SDS011;53177;52.648;1.214;2024-03-23T15:18:09;4.32;;;0.90;;
66380;SDS011;53177;52.648;1.214;2024-03-23T15:20:41;6.70;;;1.50;;
66380;SDS011;53177;52.648;1.214;2024-03-23T15:23:06;5.30;;;1.50;;
66380;SDS011;53177;52.648;1.214;2024-03-23T15:25:32;5.95;;;1.08;;
66380;SDS011;53177;52.648;1.214;2024-03-23T15:27:58;8.30;;;1.60;;
66380;SDS011;53177;52.648;1.214;2024-03-23T15:30:25;3.83;;;1.10;;
66380;SDS011;53177;52.648;1.214;2024-03-23T15:32:51;3.83;;;0.90;;
66380;SDS011;53177;52.648;1.214;2024-03-23T15:35:17;4.18;;;0.90;;
66380;SDS011;53177;52.648;1.214;2024-03-23T15:37:43;4.53;;;1.00;;
66380;SDS011;53177;52.648;1.214;2024-03-23T15:40:08;4.75;;;0.85;;
66380;SDS011;53177;52.648;1.214;2024-03-23T15:42:35;4.13;;;1.10;;
66380;SDS011;53177;52.648;1.214;2024-03-23T15:45:00;4.60;;;1.20;;
66380;SDS011;53177;52.648;1.214;2024-03-23T15:47:25;4.17;;;1.07;;
66380;SDS011;53177;52.648;1.214;2024-03-23T15:49:51;7.13;;;1.30;;